Time;durP1;ratioP1;P1;durP2;ratioP2;P2;SDS_P1;SDS_P2;PMS_P1;PMS_P2;Temp;Humidity;BMP_temperature;BMP_pressure;BME280_temperature;BME280_humidity;BME280_pressure;Samples;Min_cycle;Max_cycle;Signal;HPM_P1;HPM_P2
2023/08/25 00:02:20;;;;;;;7.00;4.32;;;18.00;99.90;;;;;;5039583;28;20041;-55
2023/08/25 00:04:49;;;;;;;7.22;4.22;;;18.00;99.90;;;;;;5039428;28;20069;-55
2023/08/25 00:07:16;;;;;;;6.32;4.65;;;18.00;99.90;;;;;;5039129;28;20431;-57
2023/08/25 00:09:42;;;;;;;9.43;4.53;;;18.00;99.90;;;;;;5039234;28;20393;-58
2023/08/25 00:12:09;;;;;;;4.72;4.00;;;18.10;99.90;;;;;;5039409;28;20041;-57
2023/08/25 00:14:36;;;;;;;6.75;4.00;;;18.10;99.90;;;;;;5039566;28;20461;-55
2023/08/25 00:17:03;;;;;;;6.72;4.38;;;18.10;99.90;;;;;;5038843;28;20431;-54
2023/08/25 00:19:30;;;;;;;6.35;4.30;;;18.10;99.90;;;;;;5039250;28;20060;-54
2023/08/25 00:21:56;;;;;;;5.80;3.88;;;18.10;99.90;;;;;;5038863;28;20488;-56
2023/08/25 00:24:23;;;;;;;5.97;4.10;;;18.00;99.90;;;;;;5039439;28;20049;-56
2023/08/25 00:26:50;;;;;;;5.13;4.20;;;18.00;99.90;;;;;;5038656;28;20042;-56
2023/08/25 00:29:18;;;;;;;10.63;4.15;;;18.00;99.90;;;;;;5039186;28;20145;-56
2023/08/25 00:31:45;;;;;;;6.53;4.22;;;18.00;99.90;;;;;;5037517;28;20038;-57
2023/08/25 00:34:12;;;;;;;6.70;4.30;;;18.00;99.90;;;;;;5039136;28;20095;-56
2023/08/25 00:36:38;;;;;;;6.05;4.35;;;18.00;99.90;;;;;;5038798;28;20046;-54
2023/08/25 00:39:05;;;;;;;6.20;4.28;;;17.90;99.90;;;;;;5037563;28;20152;-53
2023/08/25 00:41:33;;;;;;;8.93;4.47;;;17.90;99.90;;;;;;5037484;28;20050;-55
2023/08/25 00:43:59;;;;;;;6.43;4.43;;;17.90;99.90;;;;;;5037925;28;20051;-58
2023/08/25 00:46:26;;;;;;;7.65;4.55;;;17.80;99.90;;;;;;5037287;28;20045;-57
2023/08/25 00:48:53;;;;;;;8.70;4.68;;;17.80;99.90;;;;;;5039086;28;20072;-55
2023/08/25 00:51:21;;;;;;;6.90;4.70;;;17.80;99.90;;;;;;5038973;28;20484;-58
2023/08/25 00:53:48;;;;;;;5.22;4.68;;;17.70;99.90;;;;;;5039051;28;20033;-53
2023/08/25 00:56:15;;;;;;;5.93;4.70;;;17.70;99.90;;;;;;5037828;28;20073;-56
2023/08/25 00:58:42;;;;;;;5.93;4.80;;;17.70;99.90;;;;;;5037170;28;20046;-52
2023/08/25 01:01:10;;;;;;;8.98;5.72;;;17.60;99.90;;;;;;5038906;28;20041;-56
2023/08/25 01:03:38;;;;;;;7.53;4.85;;;17.60;99.90;;;;;;5038588;28;20044;-58
2023/08/25 01:06:05;;;;;;;7.43;4.70;;;17.50;99.90;;;;;;5034481;28;20439;-58
2023/08/25 01:08:32;;;;;;;6.55;4.82;;;17.50;99.90;;;;;;5034241;28;20100;-59
2023/08/25 01:10:59;;;;;;;7.25;4.80;;;17.50;99.90;;;;;;5034092;28;20457;-59
2023/08/25 01:13:26;;;;;;;7.03;4.95;;;17.50;99.90;;;;;;5034123;28;20042;-59
2023/08/25 01:15:53;;;;;;;8.80;5.03;;;17.50;99.90;;;;;;5035287;28;20438;-58
2023/08/25 01:18:20;;;;;;;7.13;5.28;;;17.40;99.90;;;;;;5034971;28;20121;-59
2023/08/25 01:20:48;;;;;;;6.28;4.38;;;17.50;99.90;;;;;;5035300;28;20045;-56
2023/08/25 01:23:15;;;;;;;8.07;4.85;;;17.40;99.90;;;;;;5034277;28;20053;-55
2023/08/25 01:25:42;;;;;;;6.90;4.82;;;17.40;99.90;;;;;;5033713;28;20049;-54
2023/08/25 01:28:09;;;;;;;5.80;4.55;;;17.40;99.90;;;;;;5034926;28;20040;-56
2023/08/25 01:30:36;;;;;;;8.70;4.57;;;17.40;99.90;;;;;;5034960;28;20049;-55
2023/08/25 01:33:03;;;;;;;7.38;3.65;;;17.40;99.90;;;;;;5035466;28;20513;-62
2023/08/25 01:35:30;;;;;;;4.75;3.95;;;17.40;99.90;;;;;;5034968;28;20120;-58
2023/08/25 01:37:57;;;;;;;5.05;3.83;;;17.30;99.90;;;;;;5034811;28;20043;-57
2023/08/25 01:40:24;;;;;;;5.82;3.80;;;17.30;99.90;;;;;;5033372;28;20480;-58
2023/08/25 01:42:50;;;;;;;5.97;3.47;;;17.20;99.90;;;;;;5034710;28;20501;-56
2023/08/25 01:45:17;;;;;;;6.38;3.42;;;17.20;99.90;;;;;;5035012;28;20037;-57
2023/08/25 01:47:44;;;;;;;4.50;3.05;;;17.10;99.90;;;;;;5034538;28;20041;-59
2023/08/25 01:50:11;;;;;;;7.85;3.50;;;17.10;99.90;;;;;;5033322;28;20563;-55
2023/08/25 01:52:38;;;;;;;6.07;3.13;;;17.00;99.90;;;;;;5035242;28;20037;-53
2023/08/25 01:55:04;;;;;;;5.90;2.90;;;17.00;99.90;;;;;;5034734;28;20045;-54
2023/08/25 01:57:31;;;;;;;9.15;2.70;;;17.00;99.90;;;;;;5034633;28;20046;-57
2023/08/25 02:00:00;;;;;;;7.03;3.20;;;17.00;99.90;;;;;;5034110;28;20079;-55
2023/08/25 02:02:27;;;;;;;9.48;2.97;;;16.90;99.90;;;;;;5033596;28;20042;-52
2023/08/25 02:04:54;;;;;;;7.35;2.95;;;16.90;99.90;;;;;;5033249;28;20053;-53
2023/08/25 02:07:23;;;;;;;7.47;2.72;;;16.90;99.90;;;;;;5034833;28;20064;-55
2023/08/25 02:09:53;;;;;;;4.75;2.75;;;16.90;99.90;;;;;;5033141;28;20051;-58
2023/08/25 02:12:21;;;;;;;9.10;3.28;;;16.90;99.90;;;;;;5034472;28;20390;-54
2023/08/25 02:14:48;;;;;;;5.35;2.80;;;16.90;99.90;;;;;;5034720;28;20042;-54
2023/08/25 02:17:15;;;;;;;5.75;2.83;;;16.90;99.90;;;;;;5032964;28;20128;-57
2023/08/25 02:19:42;;;;;;;4.53;2.70;;;16.90;99.90;;;;;;5032781;28;20045;-58
2023/08/25 02:22:11;;;;;;;7.90;2.45;;;16.90;99.90;;;;;;5033981;28;20076;-55
2023/08/25 02:24:38;;;;;;;6.15;2.95;;;16.90;99.90;;;;;;5034600;28;20041;-59
2023/08/25 02:27:05;;;;;;;7.93;2.45;;;16.90;99.90;;;;;;5034480;28;20427;-55
2023/08/25 02:29:31;;;;;;;6.57;2.55;;;16.90;99.90;;;;;;5033029;28;20559;-53
2023/08/25 02:31:58;;;;;;;6.90;2.63;;;16.90;99.90;;;;;;5033248;28;20033;-55
2023/08/25 02:34:28;;;;;;;5.13;2.80;;;16.90;99.90;;;;;;5033817;28;20041;-52
2023/08/25 02:36:54;;;;;;;7.22;2.92;;;17.00;99.90;;;;;;5033773;28;20068;-55
2023/08/25 02:39:21;;;;;;;6.10;2.70;;;17.00;99.90;;;;;;5034035;28;20057;-55
2023/08/25 02:41:48;;;;;;;6.55;2.70;;;17.00;99.90;;;;;;5032913;28;20049;-57
2023/08/25 02:44:15;;;;;;;4.22;2.60;;;17.00;99.90;;;;;;5033904;28;20041;-58
2023/08/25 02:46:43;;;;;;;6.38;2.80;;;17.00;99.90;;;;;;5033501;28;20221;-53
2023/08/25 02:49:09;;;;;;;8.48;2.97;;;17.10;99.90;;;;;;5033904;28;20042;-58
2023/08/25 02:51:36;;;;;;;4.28;2.70;;;17.10;99.90;;;;;;5033342;28;20140;-59
2023/08/25 02:54:03;;;;;;;6.97;2.88;;;17.10;99.90;;;;;;5032250;28;20481;-54
2023/08/25 02:56:30;;;;;;;6.38;2.72;;;17.10;99.90;;;;;;5032438;28;20452;-58
2023/08/25 02:58:58;;;;;;;6.40;2.50;;;17.10;99.90;;;;;;5032547;28;20048;-59
2023/08/25 03:01:27;;;;;;;5.50;2.30;;;17.10;99.90;;;;;;5033934;28;20119;-56
2023/08/25 03:03:54;;;;;;;7.53;2.70;;;17.10;99.90;;;;;;5031911;28;20114;-55
2023/08/25 03:06:21;;;;;;;3.75;2.17;;;17.10;99.90;;;;;;5032265;28;20099;-56
2023/08/25 03:08:48;;;;;;;5.40;2.00;;;17.10;99.90;;;;;;5033707;28;20045;-56
2023/08/25 03:11:15;;;;;;;6.95;2.15;;;17.00;99.90;;;;;;5031813;28;20444;-57
2023/08/25 03:13:46;;;;;;;6.53;2.42;;;17.10;99.90;;;;;;5031710;28;20042;-58
2023/08/25 03:16:13;;;;;;;5.85;2.00;;;17.00;99.90;;;;;;5032248;28;20049;-56
2023/08/25 03:18:40;;;;;;;4.68;2.10;;;17.10;99.90;;;;;;5031574;28;20120;-57
2023/08/25 03:21:07;;;;;;;4.43;1.60;;;17.10;99.90;;;;;;5033560;28;20374;-54
2023/08/25 03:23:35;;;;;;;3.72;1.50;;;17.10;99.90;;;;;;5015636;28;20041;-55
2023/08/25 03:26:02;;;;;;;6.70;1.85;;;17.00;99.90;;;;;;5032085;28;20499;-59
2023/08/25 03:28:29;;;;;;;4.50;1.70;;;16.90;99.90;;;;;;5033083;28;20033;-59
2023/08/25 03:30:56;;;;;;;5.38;1.70;;;17.00;99.90;;;;;;5033232;28;20061;-56
2023/08/25 03:33:24;;;;;;;4.50;1.83;;;17.00;99.90;;;;;;5031466;28;20107;-59
2023/08/25 03:35:51;;;;;;;4.90;1.80;;;16.90;99.90;;;;;;5031573;28;20144;-56
2023/08/25 03:38:19;;;;;;;5.57;1.48;;;16.90;99.90;;;;;;5031801;28;20073;-54
2023/08/25 03:40:46;;;;;;;4.40;1.58;;;16.80;99.90;;;;;;5033049;28;20037;-55
2023/08/25 03:43:13;;;;;;;3.47;1.60;;;16.90;99.90;;;;;;5032858;28;20046;-57
2023/08/25 03:45:39;;;;;;;6.28;1.60;;;16.90;99.90;;;;;;5031682;28;20583;-58
2023/08/25 03:48:06;;;;;;;7.07;1.70;;;16.80;99.90;;;;;;5031171;28;20499;-54
2023/08/25 03:50:33;;;;;;;5.82;1.83;;;16.70;99.90;;;;;;5031297;28;20053;-57
2023/08/25 03:53:00;;;;;;;3.45;1.50;;;16.70;99.90;;;;;;5031803;28;20092;-54
2023/08/25 03:55:27;;;;;;;2.72;1.27;;;16.70;99.90;;;;;;5032796;28;20048;-55
2023/08/25 03:57:53;;;;;;;6.18;1.80;;;16.60;99.90;;;;;;5032308;28;20045;-58
2023/08/25 04:00:21;;;;;;;6.30;1.80;;;16.60;99.90;;;;;;5031396;28;20041;-60
2023/08/25 04:02:48;;;;;;;5.32;1.30;;;16.60;99.90;;;;;;5033065;28;20114;-58
2023/08/25 04:05:15;;;;;;;4.70;1.48;;;16.60;99.90;;;;;;5032687;28;20049;-56
2023/08/25 04:07:41;;;;;;;5.65;1.70;;;16.60;99.90;;;;;;5032922;28;20484;-55
2023/08/25 04:10:08;;;;;;;3.85;1.65;;;16.60;99.90;;;;;;5031094;28;20485;-57
2023/08/25 04:12:35;;;;;;;4.38;1.48;;;16.50;99.90;;;;;;5030870;28;20042;-56
2023/08/25 04:15:02;;;;;;;5.95;1.83;;;16.50;99.90;;;;;;5032524;28;20038;-55
2023/08/25 04:17:34;;;;;;;3.13;1.75;;;16.50;99.90;;;;;;5031215;28;20096;-50
2023/08/25 04:20:02;;;;;;;7.25;1.83;;;16.50;99.90;;;;;;5031614;28;20424;-52
2023/08/25 04:22:29;;;;;;;4.15;1.55;;;16.50;99.90;;;;;;5015298;28;20099;-54
2023/08/25 04:24:58;;;;;;;3.45;1.67;;;16.40;99.90;;;;;;5031813;28;20053;-54
2023/08/25 04:27:25;;;;;;;3.33;1.40;;;16.40;99.90;;;;;;5030826;28;20132;-54
2023/08/25 04:29:52;;;;;;;4.65;1.65;;;16.40;99.90;;;;;;5031229;28;20046;-53
2023/08/25 04:32:19;;;;;;;6.50;1.55;;;16.40;99.90;;;;;;5031183;28;20481;-53
2023/08/25 04:34:48;;;;;;;5.50;1.73;;;16.30;99.90;;;;;;5031060;28;20048;-52
2023/08/25 04:37:16;;;;;;;5.05;1.55;;;16.30;99.90;;;;;;5031381;28;20053;-57
2023/08/25 04:39:42;;;;;;;4.90;1.38;;;16.30;99.90;;;;;;5030936;28;20459;-53
2023/08/25 04:42:09;;;;;;;5.28;1.30;;;16.20;99.90;;;;;;5034494;28;20045;-52
2023/08/25 04:44:36;;;;;;;6.88;1.48;;;16.20;99.90;;;;;;5035053;28;20103;-50
2023/08/25 04:47:03;;;;;;;3.83;1.30;;;16.10;99.90;;;;;;5034299;28;20088;-50
2023/08/25 04:49:30;;;;;;;3.28;1.30;;;16.10;99.90;;;;;;5034733;28;20493;-49
2023/08/25 04:51:58;;;;;;;4.05;1.27;;;16.00;99.90;;;;;;5035128;28;20099;-50
2023/08/25 04:54:25;;;;;;;3.00;1.30;;;16.00;99.90;;;;;;5035642;28;20112;-49
2023/08/25 04:56:54;;;;;;;3.75;1.40;;;16.00;99.90;;;;;;5034343;28;20042;-49
2023/08/25 04:59:20;;;;;;;4.28;1.50;;;15.90;99.90;;;;;;5034284;28;20065;-51
2023/08/25 05:01:48;;;;;;;4.90;1.50;;;15.90;99.90;;;;;;5034485;28;20053;-51
2023/08/25 05:04:15;;;;;;;5.90;1.55;;;15.90;99.90;;;;;;5035589;28;20508;-51
2023/08/25 05:06:42;;;;;;;4.47;1.63;;;15.90;99.90;;;;;;5034174;28;20045;-50
2023/08/25 05:09:10;;;;;;;5.65;1.83;;;15.90;99.90;;;;;;5034635;28;20467;-53
2023/08/25 05:11:39;;;;;;;4.20;1.40;;;15.80;99.90;;;;;;5034759;28;20069;-58
2023/08/25 05:14:07;;;;;;;4.07;1.30;;;15.80;99.90;;;;;;5035483;28;20061;-52
2023/08/25 05:16:34;;;;;;;4.00;1.27;;;15.80;99.90;;;;;;5034601;28;20046;-55
2023/08/25 05:19:11;;;;;;;4.57;1.30;;;15.80;99.90;;;;;;5034662;28;20053;-52
2023/08/25 05:21:39;;;;;;;5.30;1.60;;;15.80;99.90;;;;;;5034602;28;20145;-56
2023/08/25 05:24:05;;;;;;;4.03;1.30;;;15.90;99.90;;;;;;5035631;28;20034;-56
2023/08/25 05:26:32;;;;;;;2.45;0.98;;;15.90;99.90;;;;;;5034092;28;20141;-53
2023/08/25 05:29:00;;;;;;;5.47;1.35;;;15.90;99.90;;;;;;5033874;28;20053;-57
2023/08/25 05:31:27;;;;;;;6.82;1.35;;;16.00;99.90;;;;;;5034357;28;20096;-53
2023/08/25 05:34:15;;;;;;;5.22;1.30;;;16.00;99.90;;;;;;5034972;28;20053;-53
2023/08/25 05:37:03;;;;;;;5.32;1.00;;;15.90;99.90;;;;;;5033891;28;20095;-54
2023/08/25 05:39:29;;;;;;;3.45;1.05;;;15.90;99.90;;;;;;5034282;28;20495;-53
2023/08/25 05:41:56;;;;;;;3.90;1.20;;;15.80;99.90;;;;;;5034690;28;20404;-54
2023/08/25 05:44:23;;;;;;;5.35;1.30;;;15.80;99.90;;;;;;5034904;28;20045;-53
2023/08/25 05:46:51;;;;;;;8.20;1.23;;;15.80;99.90;;;;;;5033574;28;20132;-52
2023/08/25 05:49:17;;;;;;;3.50;1.13;;;15.80;99.90;;;;;;5033948;28;20113;-54
2023/08/25 05:51:44;;;;;;;4.88;1.42;;;15.80;99.90;;;;;;5032963;28;20133;-52
2023/08/25 05:54:12;;;;;;;4.50;1.42;;;15.90;99.90;;;;;;5034067;28;20049;-56
2023/08/25 05:56:39;;;;;;;3.97;1.20;;;15.90;99.90;;;;;;5033658;28;20049;-50
2023/08/25 05:59:06;;;;;;;3.58;1.20;;;15.90;99.90;;;;;;5034907;28;20464;-53
2023/08/25 06:01:33;;;;;;;3.92;1.00;;;15.90;99.90;;;;;;5035000;28;20050;-56
2023/08/25 06:03:59;;;;;;;3.38;0.95;;;15.80;99.90;;;;;;5033775;28;20077;-54
2023/08/25 06:06:26;;;;;;;3.70;1.02;;;15.80;99.90;;;;;;5034889;28;20049;-53
2023/08/25 06:08:54;;;;;;;4.70;1.10;;;15.80;99.90;;;;;;5034703;28;20315;-52
2023/08/25 06:11:22;;;;;;;4.00;0.85;;;15.80;99.90;;;;;;5034722;28;20057;-55
2023/08/25 06:13:49;;;;;;;5.65;1.00;;;15.70;99.90;;;;;;5034463;28;20042;-53
2023/08/25 06:16:16;;;;;;;3.42;1.00;;;15.80;99.90;;;;;;5034768;28;20140;-57
2023/08/25 06:18:42;;;;;;;4.50;1.27;;;15.80;99.90;;;;;;5034843;28;20056;-54
2023/08/25 06:21:09;;;;;;;5.47;1.30;;;15.80;99.90;;;;;;5034429;28;20125;-50
2023/08/25 06:23:36;;;;;;;7.47;1.30;;;15.90;99.90;;;;;;5034145;28;20048;-58
2023/08/25 06:26:03;;;;;;;5.40;1.38;;;15.80;99.90;;;;;;5034055;28;20052;-53
2023/08/25 06:28:30;;;;;;;3.78;1.40;;;15.80;99.90;;;;;;5034080;28;20095;-55
2023/08/25 06:30:57;;;;;;;5.35;1.05;;;15.80;99.90;;;;;;5034279;28;20042;-55
2023/08/25 06:33:26;;;;;;;4.13;1.08;;;15.80;99.90;;;;;;5034089;28;20428;-59
2023/08/25 06:35:53;;;;;;;4.07;1.25;;;15.80;99.90;;;;;;5033891;28;20091;-53
2023/08/25 06:38:20;;;;;;;4.75;1.40;;;15.80;99.90;;;;;;5033728;28;20049;-54
2023/08/25 06:40:47;;;;;;;3.08;1.02;;;15.70;99.90;;;;;;5033875;28;20052;-49
2023/08/25 06:43:14;;;;;;;5.85;0.90;;;15.70;99.90;;;;;;5033272;28;20121;-51
2023/08/25 06:45:40;;;;;;;3.78;1.25;;;15.70;99.90;;;;;;5033890;28;20048;-50
2023/08/25 06:48:07;;;;;;;7.68;1.13;;;15.70;99.90;;;;;;5033450;28;20092;-54
2023/08/25 06:50:34;;;;;;;3.80;1.05;;;15.70;99.90;;;;;;5033759;28;20046;-58
2023/08/25 06:53:01;;;;;;;4.22;0.95;;;15.70;99.90;;;;;;5033626;28;20045;-57
2023/08/25 06:55:28;;;;;;;3.08;1.00;;;15.70;99.90;;;;;;5033676;28;20033;-57
2023/08/25 06:57:54;;;;;;;4.70;1.10;;;15.70;99.90;;;;;;5033681;28;20041;-54
2023/08/25 07:00:22;;;;;;;3.65;1.35;;;15.80;99.90;;;;;;5033719;28;20428;-55
2023/08/25 07:02:49;;;;;;;6.28;1.35;;;15.80;99.90;;;;;;5033072;28;20049;-56
2023/08/25 07:05:16;;;;;;;3.05;0.80;;;15.90;99.90;;;;;;5033745;28;20046;-55
2023/08/25 07:07:43;;;;;;;3.40;0.98;;;15.90;99.90;;;;;;5033893;28;20041;-56
2023/08/25 07:10:10;;;;;;;4.72;0.95;;;15.90;99.50;;;;;;5033411;28;20484;-55
2023/08/25 07:12:37;;;;;;;4.68;1.48;;;15.90;98.80;;;;;;5033075;28;20068;-57
2023/08/25 07:15:04;;;;;;;3.75;1.13;;;15.90;99.10;;;;;;5033581;28;20053;-54
2023/08/25 07:17:31;;;;;;;5.72;0.90;;;15.90;99.00;;;;;;5032257;28;20041;-55
2023/08/25 07:19:58;;;;;;;5.40;1.00;;;15.90;99.40;;;;;;5033699;28;20451;-58
2023/08/25 07:22:25;;;;;;;4.07;1.00;;;16.00;99.00;;;;;;5033214;28;20488;-58
2023/08/25 07:24:53;;;;;;;4.60;1.10;;;15.90;99.30;;;;;;5033116;28;20041;-55
2023/08/25 07:27:20;;;;;;;4.30;0.82;;;16.00;98.90;;;;;;5033312;28;20092;-53
2023/08/25 07:29:46;;;;;;;2.58;0.90;;;16.00;98.90;;;;;;5032330;28;20037;-57
2023/08/25 07:32:13;;;;;;;2.50;0.80;;;15.90;98.30;;;;;;5033501;28;20033;-55
2023/08/25 07:34:40;;;;;;;6.75;1.17;;;15.90;98.90;;;;;;5031996;28;20045;-51
2023/08/25 07:37:07;;;;;;;3.95;1.08;;;15.90;98.00;;;;;;5033437;28;20124;-57
2023/08/25 07:39:34;;;;;;;4.55;0.93;;;15.90;98.00;;;;;;5033255;28;20049;-56
2023/08/25 07:42:00;;;;;;;2.22;0.82;;;15.90;98.00;;;;;;5033593;28;20041;-59
2023/08/25 07:44:27;;;;;;;4.13;0.80;;;16.00;97.70;;;;;;5033467;28;20046;-54
2023/08/25 07:46:54;;;;;;;4.30;1.05;;;16.00;97.80;;;;;;5033293;28;20067;-56
2023/08/25 07:49:21;;;;;;;4.05;0.80;;;16.00;97.30;;;;;;5032962;28;20046;-58
2023/08/25 07:51:47;;;;;;;4.13;0.88;;;16.10;97.70;;;;;;5032430;28;20045;-58
2023/08/25 07:54:14;;;;;;;3.83;0.63;;;16.20;97.20;;;;;;5032202;28;20034;-53
2023/08/25 07:56:41;;;;;;;3.00;0.77;;;16.20;97.40;;;;;;5032423;28;20061;-55
2023/08/25 07:59:09;;;;;;;2.50;0.80;;;16.20;96.80;;;;;;5032764;28;20041;-55
2023/08/25 08:01:35;;;;;;;4.78;0.90;;;16.30;97.60;;;;;;5032413;28;20112;-55
2023/08/25 08:04:03;;;;;;;4.03;0.70;;;16.30;96.90;;;;;;5032115;28;20041;-56
2023/08/25 08:06:33;;;;;;;4.32;0.77;;;16.40;96.90;;;;;;5032516;28;20104;-52
2023/08/25 08:09:00;;;;;;;7.47;0.90;;;16.30;97.20;;;;;;5032722;28;20038;-50
2023/08/25 08:11:27;;;;;;;3.17;0.80;;;16.40;96.60;;;;;;5032586;28;20091;-53
2023/08/25 08:13:54;;;;;;;3.70;0.73;;;16.30;96.40;;;;;;5032700;28;20045;-54
2023/08/25 08:16:21;;;;;;;4.00;1.05;;;16.40;97.10;;;;;;5035479;28;20038;-56
2023/08/25 08:18:48;;;;;;;2.78;0.60;;;16.40;96.90;;;;;;5036313;28;20053;-54
2023/08/25 08:21:15;;;;;;;5.03;0.88;;;16.50;97.30;;;;;;5036197;28;20048;-53
2023/08/25 08:23:41;;;;;;;2.75;0.93;;;16.60;97.30;;;;;;5036380;28;20128;-51
2023/08/25 08:26:09;;;;;;;7.72;1.10;;;16.60;96.90;;;;;;5034800;28;20052;-54
2023/08/25 08:28:36;;;;;;;3.40;0.95;;;16.70;96.80;;;;;;5036149;28;20041;-56
2023/08/25 08:31:05;;;;;;;2.90;0.90;;;16.60;96.70;;;;;;5036127;28;20490;-51
2023/08/25 08:33:32;;;;;;;2.85;0.90;;;16.70;96.80;;;;;;5036163;28;20042;-57
2023/08/25 08:35:59;;;;;;;3.25;0.90;;;16.70;97.00;;;;;;5036313;28;20041;-57
2023/08/25 08:38:26;;;;;;;2.45;0.80;;;16.70;96.90;;;;;;5035851;28;20140;-57
2023/08/25 08:40:52;;;;;;;3.92;0.95;;;16.70;96.60;;;;;;5035940;28;20443;-53
2023/08/25 08:43:19;;;;;;;4.55;0.80;;;16.70;96.70;;;;;;5035776;28;20111;-49
2023/08/25 08:45:51;;;;;;;2.97;0.85;;;16.70;96.20;;;;;;5036061;28;20405;-52
2023/08/25 08:48:18;;;;;;;5.97;0.80;;;16.70;96.20;;;;;;5034011;28;20527;-54
2023/08/25 08:50:45;;;;;;;3.47;0.90;;;16.80;96.30;;;;;;5035594;28;20053;-54
2023/08/25 08:53:12;;;;;;;5.20;0.80;;;16.80;96.80;;;;;;5035129;28;20082;-54
2023/08/25 08:55:38;;;;;;;5.68;0.80;;;16.80;96.70;;;;;;5035678;28;20037;-50
2023/08/25 08:58:05;;;;;;;1.85;0.70;;;16.80;96.40;;;;;;5035386;28;20447;-56
2023/08/25 09:00:32;;;;;;;2.85;0.80;;;16.70;96.20;;;;;;5034981;28;20048;-56
2023/08/25 09:02:59;;;;;;;3.40;0.95;;;16.80;96.60;;;;;;5035807;28;20128;-58
2023/08/25 09:05:29;;;;;;;2.25;0.68;;;16.80;96.20;;;;;;5034857;28;20045;-53
2023/08/25 09:07:56;;;;;;;4.70;0.80;;;17.00;96.20;;;;;;5035344;28;20124;-51
2023/08/25 09:10:24;;;;;;;2.20;0.70;;;17.00;96.10;;;;;;5034593;28;20052;-53
2023/08/25 09:12:51;;;;;;;4.70;1.38;;;17.20;94.80;;;;;;5034606;28;20082;-54
2023/08/25 09:15:18;;;;;;;3.88;0.77;;;17.20;95.50;;;;;;5035460;28;20087;-51
2023/08/25 09:17:44;;;;;;;3.45;0.80;;;17.20;95.80;;;;;;5034371;28;20495;-53
2023/08/25 09:20:11;;;;;;;4.68;1.10;;;17.30;96.30;;;;;;5035253;28;20131;-55
2023/08/25 09:22:38;;;;;;;4.03;0.93;;;17.40;95.40;;;;;;5034521;28;20056;-53
2023/08/25 09:25:06;;;;;;;5.43;0.90;;;17.40;95.30;;;;;;5033913;28;20464;-53
2023/08/25 09:27:33;;;;;;;4.70;0.93;;;17.60;95.40;;;;;;5033204;28;20518;-51
2023/08/25 09:29:59;;;;;;;3.92;1.13;;;17.70;95.70;;;;;;5035369;28;20570;-55
2023/08/25 09:32:28;;;;;;;3.15;0.82;;;17.80;95.60;;;;;;5034953;28;20043;-57
2023/08/25 09:34:55;;;;;;;4.43;1.00;;;18.00;95.30;;;;;;5034734;28;20051;-58
2023/08/25 09:37:23;;;;;;;2.38;0.85;;;18.00;94.80;;;;;;5034850;28;20484;-58
2023/08/25 09:39:49;;;;;;;4.28;1.17;;;18.10;95.40;;;;;;5034357;28;20077;-57
2023/08/25 09:42:17;;;;;;;2.20;0.80;;;18.20;94.90;;;;;;5034755;28;20128;-57
2023/08/25 09:44:44;;;;;;;3.22;1.00;;;18.20;94.70;;;;;;5033916;28;20049;-57
2023/08/25 09:47:11;;;;;;;2.60;0.90;;;18.30;95.10;;;;;;5034738;28;20056;-55
2023/08/25 09:49:38;;;;;;;5.28;1.00;;;18.30;93.90;;;;;;5029354;28;20067;-55
2023/08/25 09:52:05;;;;;;;5.70;0.85;;;18.40;94.30;;;;;;5028133;28;20049;-52
2023/08/25 09:54:32;;;;;;;4.10;0.90;;;18.40;93.80;;;;;;5034109;28;20038;-49
2023/08/25 09:56:58;;;;;;;5.57;1.15;;;18.50;94.10;;;;;;5034575;28;20441;-52
2023/08/25 09:59:27;;;;;;;3.17;1.30;;;18.70;94.20;;;;;;5033999;28;20069;-55
2023/08/25 10:01:53;;;;;;;4.38;0.77;;;18.90;93.70;;;;;;5034278;28;20056;-54
2023/08/25 10:04:20;;;;;;;5.45;1.00;;;19.10;93.40;;;;;;5033864;28;20081;-55
2023/08/25 10:06:47;;;;;;;4.85;0.75;;;19.30;93.40;;;;;;5033838;28;20492;-53
2023/08/25 10:09:14;;;;;;;3.40;0.90;;;19.40;92.20;;;;;;5034021;28;20469;-53
2023/08/25 10:11:41;;;;;;;4.43;1.10;;;19.60;91.80;;;;;;5034530;28;20459;-57
2023/08/25 10:14:08;;;;;;;4.32;1.10;;;19.60;91.90;;;;;;5034261;28;20405;-56
2023/08/25 10:16:36;;;;;;;3.00;0.90;;;19.60;92.60;;;;;;5031596;28;20069;-57
2023/08/25 10:19:04;;;;;;;2.72;1.00;;;19.50;91.70;;;;;;5033097;28;20096;-54
2023/08/25 10:21:30;;;;;;;4.72;0.93;;;19.50;92.10;;;;;;5034379;28;20449;-57
2023/08/25 10:23:57;;;;;;;6.80;1.13;;;19.60;92.00;;;;;;5034192;28;20041;-54
2023/08/25 10:26:24;;;;;;;3.55;0.90;;;19.70;92.20;;;;;;5033236;28;20523;-55
2023/08/25 10:28:51;;;;;;;5.25;1.17;;;19.80;91.90;;;;;;5034129;28;20397;-55
2023/08/25 10:31:18;;;;;;;2.95;1.00;;;19.90;91.30;;;;;;5033972;28;20038;-59
2023/08/25 10:33:45;;;;;;;4.68;1.00;;;20.00;91.50;;;;;;5033122;28;20127;-55
2023/08/25 10:36:12;;;;;;;2.50;0.88;;;20.20;91.80;;;;;;5033623;28;20041;-58
2023/08/25 10:38:39;;;;;;;3.58;1.00;;;20.30;91.80;;;;;;5032888;28;20080;-59
2023/08/25 10:41:06;;;;;;;5.40;1.10;;;20.40;91.20;;;;;;5033812;28;20041;-55
2023/08/25 10:43:33;;;;;;;5.97;1.10;;;20.40;90.90;;;;;;5032870;28;20051;-55
2023/08/25 10:46:00;;;;;;;5.65;0.98;;;20.30;90.70;;;;;;5033716;28;20052;-55
2023/08/25 10:48:27;;;;;;;2.10;0.70;;;20.40;90.90;;;;;;5033446;28;20099;-54
2023/08/25 10:51:02;;;;;;;4.75;0.80;;;20.40;90.90;;;;;;5032267;28;20045;-57
2023/08/25 10:53:29;;;;;;;2.97;0.90;;;20.50;91.60;;;;;;5032702;28;20120;-56
2023/08/25 10:55:56;;;;;;;3.53;0.85;;;20.70;91.40;;;;;;5026171;28;20045;-55
2023/08/25 10:58:23;;;;;;;3.58;0.85;;;20.90;91.40;;;;;;5033084;28;20484;-52
2023/08/25 11:00:51;;;;;;;3.38;1.15;;;21.00;91.40;;;;;;5033274;28;20421;-53
2023/08/25 11:03:18;;;;;;;3.67;1.05;;;21.10;90.60;;;;;;5032692;28;20109;-54
2023/08/25 11:05:45;;;;;;;2.95;1.13;;;21.00;90.00;;;;;;5033725;28;20401;-56
2023/08/25 11:08:12;;;;;;;3.17;1.10;;;21.00;90.60;;;;;;5033081;28;20160;-54
2023/08/25 11:10:39;;;;;;;3.22;1.05;;;21.10;90.70;;;;;;5033470;28;20509;-55
2023/08/25 11:13:07;;;;;;;3.50;1.00;;;21.30;90.30;;;;;;5033162;28;20041;-57
2023/08/25 11:15:36;;;;;;;3.65;1.02;;;21.40;90.10;;;;;;5032957;28;20037;-53
2023/08/25 11:18:04;;;;;;;3.67;1.20;;;21.30;90.00;;;;;;5033037;28;20033;-56
2023/08/25 11:20:32;;;;;;;3.10;1.15;;;21.40;88.70;;;;;;5032165;28;20041;-54
2023/08/25 11:22:58;;;;;;;3.97;1.05;;;21.40;89.20;;;;;;5032034;28;20473;-57
2023/08/25 11:25:45;;;;;;;3.65;1.02;;;21.50;90.20;;;;;;5032724;28;20042;-57
2023/08/25 11:28:12;;;;;;;5.70;1.00;;;21.60;89.60;;;;;;5032828;28;20044;-57
2023/08/25 11:30:39;;;;;;;2.63;1.20;;;21.60;90.20;;;;;;5031966;28;20036;-57
2023/08/25 11:33:07;;;;;;;3.20;1.20;;;21.70;90.00;;;;;;5032810;28;20049;-55
2023/08/25 11:35:34;;;;;;;3.45;1.17;;;21.80;90.60;;;;;;5032038;28;20476;-52
2023/08/25 11:38:00;;;;;;;6.72;1.33;;;21.90;89.50;;;;;;5030859;28;20441;-54
2023/08/25 11:40:27;;;;;;;7.47;1.20;;;21.80;90.00;;;;;;5031483;28;20037;-57
2023/08/25 11:42:54;;;;;;;5.20;1.17;;;21.80;88.70;;;;;;5030341;28;20089;-55
2023/08/25 11:45:21;;;;;;;3.42;0.82;;;21.60;88.90;;;;;;5031405;28;20137;-54
2023/08/25 11:47:48;;;;;;;4.47;1.10;;;21.50;88.30;;;;;;5030233;28;20095;-56
2023/08/25 11:50:15;;;;;;;2.88;0.82;;;21.40;88.40;;;;;;5031287;28;20053;-52
2023/08/25 11:52:42;;;;;;;3.95;1.10;;;21.30;89.20;;;;;;5032027;28;20041;-53
2023/08/25 11:55:09;;;;;;;2.58;0.90;;;21.20;88.20;;;;;;5032701;28;20064;-55
2023/08/25 11:57:36;;;;;;;3.83;1.10;;;21.00;88.30;;;;;;5031764;28;20091;-54
2023/08/25 12:00:03;;;;;;;4.22;0.98;;;20.90;90.00;;;;;;5032427;28;20589;-59
2023/08/25 12:02:29;;;;;;;5.32;1.08;;;20.90;89.60;;;;;;5031388;28;20052;-52
2023/08/25 12:04:56;;;;;;;3.97;1.00;;;20.90;88.90;;;;;;5032235;28;20045;-57
2023/08/25 12:07:26;;;;;;;6.78;0.90;;;20.80;88.20;;;;;;5031969;28;20049;-55
2023/08/25 12:09:54;;;;;;;2.75;0.90;;;20.80;87.30;;;;;;5032459;28;20492;-51
2023/08/25 12:12:21;;;;;;;3.40;0.82;;;20.60;87.00;;;;;;5030362;28;20116;-55
2023/08/25 12:14:48;;;;;;;3.17;0.70;;;20.60;87.40;;;;;;5032499;28;20044;-55
2023/08/25 12:17:14;;;;;;;3.60;0.80;;;20.50;86.30;;;;;;5031488;28;20036;-57
2023/08/25 12:19:41;;;;;;;2.92;0.82;;;20.40;86.20;;;;;;5024767;28;20041;-53
2023/08/25 12:22:08;;;;;;;2.50;0.70;;;20.30;87.30;;;;;;5031752;28;20059;-56
2023/08/25 12:24:35;;;;;;;2.28;0.73;;;20.30;87.60;;;;;;5032183;28;20095;-49
2023/08/25 12:27:02;;;;;;;3.30;0.80;;;20.40;87.80;;;;;;5031200;28;20469;-55
2023/08/25 12:29:29;;;;;;;1.92;0.70;;;20.40;87.50;;;;;;5031475;28;20512;-53
2023/08/25 12:31:56;;;;;;;1.45;0.50;;;20.40;85.30;;;;;;5032465;28;20068;-53
2023/08/25 12:34:22;;;;;;;1.05;0.45;;;20.40;85.70;;;;;;5031426;28;20136;-48
2023/08/25 12:36:49;;;;;;;2.28;0.80;;;20.30;85.00;;;;;;5032521;28;20038;-50
2023/08/25 12:39:16;;;;;;;1.90;0.75;;;20.40;85.80;;;;;;5031204;28;20080;-49
2023/08/25 12:41:43;;;;;;;1.60;0.50;;;20.40;85.00;;;;;;5032061;28;20140;-51
2023/08/25 12:44:10;;;;;;;1.48;0.40;;;20.40;83.90;;;;;;5031134;28;20412;-54
2023/08/25 12:46:36;;;;;;;3.60;0.60;;;20.40;83.30;;;;;;5030444;28;20041;-53
2023/08/25 12:49:04;;;;;;;1.85;0.60;;;20.40;83.50;;;;;;5031636;28;20124;-54